<?xml version="1.0" encoding="utf-8"?>
<gpx xmlns:xsi="http://www.w3.org/2001/XMLSchema-instance" xmlns:xsd="http://www.w3.org/2001/XMLSchema" version="1.1" creator="Shapelink.com" xmlns="http://www.topografix.com/GPX/1/1" xmlns:gpxtpx="http://www.garmin.com/xmlschemas/TrackPointExtension/v1">
  <metadata>
    <name>Övrigt 1.47 km, 2019-06-04</name>
    <desc></desc>
    <author><name>Marian Moron</name></author> 
    <time>2019-06-04T20:44:53Z</time>
  </metadata>
  <trk>
    <name>Övrigt 1.47 km, 2019-06-04</name>
    <trkseg>
      <trkpt lat="51.230025446198" lon="4.458015019809">
        <ele>7.6</ele>
        <time>2019-06-04T20:44:53Z</time>
      </trkpt>
      <trkpt lat="51.230007257475" lon="4.458118284817">
        <ele>4.6</ele>
        <time>2019-06-04T20:44:56Z</time>
      </trkpt>
      <trkpt lat="51.229981441223" lon="4.458778191804">
        <ele>0</ele>
        <time>2019-06-04T20:45:34Z</time>
      </trkpt>
      <trkpt lat="51.230427525941" lon="4.458673501873">
        <ele>4.4</ele>
        <time>2019-06-04T20:45:56Z</time>
      </trkpt>
      <trkpt lat="51.230877047238" lon="4.458530255202">
        <ele>6.6</ele>
        <time>2019-06-04T20:46:16Z</time>
      </trkpt>
      <trkpt lat="51.231065304712" lon="4.458493374842">
        <ele>4.6</ele>
        <time>2019-06-04T20:46:30Z</time>
      </trkpt>
      <trkpt lat="51.231231517789" lon="4.458369657998">
        <ele>3.4</ele>
        <time>2019-06-04T20:46:45Z</time>
      </trkpt>
      <trkpt lat="51.231278037334" lon="4.458342333004">
        <ele>3.6</ele>
        <time>2019-06-04T20:46:53Z</time>
      </trkpt>
      <trkpt lat="51.231519184597" lon="4.458290113767">
        <ele>6</ele>
        <time>2019-06-04T20:47:17Z</time>
      </trkpt>
      <trkpt lat="51.231607948918" lon="4.458256418529">
        <ele>7.2</ele>
        <time>2019-06-04T20:47:25Z</time>
      </trkpt>
      <trkpt lat="51.23182906344" lon="4.458119625921">
        <ele>8.2</ele>
        <time>2019-06-04T20:47:44Z</time>
      </trkpt>
      <trkpt lat="51.232195268651" lon="4.457858445917">
        <ele>6.2</ele>
        <time>2019-06-04T20:48:07Z</time>
      </trkpt>
      <trkpt lat="51.232279422927" lon="4.457847214171">
        <ele>5.8</ele>
        <time>2019-06-04T20:48:14Z</time>
      </trkpt>
      <trkpt lat="51.232483270735" lon="4.45771989311">
        <ele>6.6</ele>
        <time>2019-06-04T20:48:22Z</time>
      </trkpt>
      <trkpt lat="51.23250380639" lon="4.457755683823">
        <ele>6.2</ele>
        <time>2019-06-04T20:48:24Z</time>
      </trkpt>
      <trkpt lat="51.232556109446" lon="4.458188106044">
        <ele>4.6</ele>
        <time>2019-06-04T20:48:41Z</time>
      </trkpt>
      <trkpt lat="51.232628026148" lon="4.458735025019">
        <ele>3.6</ele>
        <time>2019-06-04T20:49:01Z</time>
      </trkpt>
      <trkpt lat="51.232671695847" lon="4.45901908761">
        <ele>2.8</ele>
        <time>2019-06-04T20:49:49Z</time>
      </trkpt>
      <trkpt lat="51.232768087697" lon="4.459648819757">
        <ele>0</ele>
        <time>2019-06-04T20:50:29Z</time>
      </trkpt>
      <trkpt lat="51.232941425389" lon="4.460105465669">
        <ele>1.2</ele>
        <time>2019-06-04T20:51:33Z</time>
      </trkpt>
      <trkpt lat="51.232947292719" lon="4.460118625252">
        <ele>1.2</ele>
        <time>2019-06-04T20:51:40Z</time>
      </trkpt>
      <trkpt lat="51.232896246948" lon="4.460096916131">
        <ele>1.6</ele>
        <time>2019-06-04T20:51:46Z</time>
      </trkpt>
      <trkpt lat="51.232468853867" lon="4.460347702579">
        <ele>0</ele>
        <time>2019-06-04T20:52:08Z</time>
      </trkpt>
      <trkpt lat="51.232214127926" lon="4.460488350861">
        <ele>1.2</ele>
        <time>2019-06-04T20:52:20Z</time>
      </trkpt>
      <trkpt lat="51.232181019421" lon="4.460531685284">
        <ele>1</ele>
        <time>2019-06-04T20:52:23Z</time>
      </trkpt>
      <trkpt lat="51.232031989239" lon="4.460657246146">
        <ele>0.8</ele>
        <time>2019-06-04T20:52:35Z</time>
      </trkpt>
      <trkpt lat="51.232060990613" lon="4.46086142923">
        <ele>0</ele>
        <time>2019-06-04T20:52:43Z</time>
      </trkpt>
      <trkpt lat="51.23212913546" lon="4.461182120724">
        <ele>0.6</ele>
        <time>2019-06-04T20:53:00Z</time>
      </trkpt>
      <trkpt lat="51.232151515133" lon="4.461326121766">
        <ele>3</ele>
        <time>2019-06-04T20:53:06Z</time>
      </trkpt>
      <trkpt lat="51.232111030556" lon="4.461409186395">
        <ele>7.4</ele>
        <time>2019-06-04T20:53:09Z</time>
      </trkpt>
      <trkpt lat="51.232104995588" lon="4.46147666069">
        <ele>8.8</ele>
        <time>2019-06-04T20:53:12Z</time>
      </trkpt>
      <trkpt lat="51.232077335318" lon="4.461485713142">
        <ele>9.4</ele>
        <time>2019-06-04T20:53:15Z</time>
      </trkpt>
      <trkpt lat="51.231775167823" lon="4.461476409233">
        <ele>9</ele>
        <time>2019-06-04T20:53:43Z</time>
      </trkpt>
      <trkpt lat="51.231597220086" lon="4.461614375307">
        <ele>7.6</ele>
        <time>2019-06-04T20:54:08Z</time>
      </trkpt>
      <trkpt lat="51.231337632643" lon="4.461667181277">
        <ele>8</ele>
        <time>2019-06-04T20:54:29Z</time>
      </trkpt>
      <trkpt lat="51.230928428285" lon="4.461941437045">
        <ele>3.4</ele>
        <time>2019-06-04T20:55:12Z</time>
      </trkpt>
      <trkpt lat="51.230477314427" lon="4.462028944081">
        <ele>11.2</ele>
        <time>2019-06-04T20:55:49Z</time>
      </trkpt>
      <trkpt lat="51.230028798958" lon="4.462112092529">
        <ele>8.2</ele>
        <time>2019-06-04T20:56:34Z</time>
      </trkpt>
      <trkpt lat="51.22998672182" lon="4.462107985398">
        <ele>6.4</ele>
        <time>2019-06-04T20:56:39Z</time>
      </trkpt>
      <trkpt lat="51.229972556409" lon="4.462051491392">
        <ele>6.2</ele>
        <time>2019-06-04T20:56:43Z</time>
      </trkpt>
      <trkpt lat="51.229789328075" lon="4.461393763699">
        <ele>5.6</ele>
        <time>2019-06-04T20:57:23Z</time>
      </trkpt>
      <trkpt lat="51.229777258139" lon="4.461336515322">
        <ele>6.4</ele>
        <time>2019-06-04T20:57:26Z</time>
      </trkpt>
      <trkpt lat="51.229672149113" lon="4.461107354176">
        <ele>7</ele>
        <time>2019-06-04T20:57:39Z</time>
      </trkpt>
      <trkpt lat="51.229649434164" lon="4.46106594759">
        <ele>6.6</ele>
        <time>2019-06-04T20:57:42Z</time>
      </trkpt>
      <trkpt lat="51.229612386166" lon="4.460974501061">
        <ele>6.2</ele>
        <time>2019-06-04T20:57:52Z</time>
      </trkpt>
      <trkpt lat="51.229557736178" lon="4.460937788339">
        <ele>6.2</ele>
        <time>2019-06-04T20:57:57Z</time>
      </trkpt>
      <trkpt lat="51.229480790336" lon="4.46092010253">
        <ele>6</ele>
        <time>2019-06-04T20:58:04Z</time>
      </trkpt>
      <trkpt lat="51.229437875008" lon="4.460590023308">
        <ele>7.8</ele>
        <time>2019-06-04T20:58:23Z</time>
      </trkpt>
      <trkpt lat="51.229419434828" lon="4.460555406061">
        <ele>8</ele>
        <time>2019-06-04T20:58:26Z</time>
      </trkpt>
      <trkpt lat="51.229299238382" lon="4.460539983365">
        <ele>6.2</ele>
        <time>2019-06-04T20:58:41Z</time>
      </trkpt>
      <trkpt lat="51.229048032839" lon="4.460540067184">
        <ele>14.8</ele>
        <time>2019-06-04T20:59:00Z</time>
      </trkpt>
      <trkpt lat="51.228853572759" lon="4.46036019161">
        <ele>21.2</ele>
        <time>2019-06-04T20:59:25Z</time>
      </trkpt>
      <trkpt lat="51.228646120734" lon="4.459697770053">
        <ele>5</ele>
        <time>2019-06-04T20:59:59Z</time>
      </trkpt>
      <trkpt lat="51.228539754423" lon="4.45898807458">
        <ele>4.2</ele>
        <time>2019-06-04T21:00:17Z</time>
      </trkpt>
      <trkpt lat="51.228526259564" lon="4.458354905854">
        <ele>3.8</ele>
        <time>2019-06-04T21:00:40Z</time>
      </trkpt>
      <trkpt lat="51.228557272594" lon="4.458199840704">
        <ele>3.6</ele>
        <time>2019-06-04T21:00:49Z</time>
      </trkpt>
      <trkpt lat="51.228900176123" lon="4.458126499079">
        <ele>10.8</ele>
        <time>2019-06-04T21:01:05Z</time>
      </trkpt>
      <trkpt lat="51.2289490426" lon="4.458173605357">
        <ele>11.4</ele>
        <time>2019-06-04T21:01:08Z</time>
      </trkpt>
      <trkpt lat="51.229420273018" lon="4.458068999245">
        <ele>10</ele>
        <time>2019-06-04T21:01:20Z</time>
      </trkpt>
      <trkpt lat="51.229755046104" lon="4.457938409243">
        <ele>18.8</ele>
        <time>2019-06-04T21:02:09Z</time>
      </trkpt>
    </trkseg>
  </trk>
</gpx>